Terminal Aerodrome Forecast
Issued by NWS Wilmington, OH

Current Version | Previous Version | Graphics & Text | Print | Product List | Glossary On
Versions: 1 2 3 4 5 6 7 8 9 10 11 12 13 14 15 16 17
000
FTUS41 KILN 201700 RRA
TAFCMH
TAF
KCMH 201745Z 2018/2118 25017G26KT P6SM BKN035
     FM210000 26013KT P6SM BKN035
     FM210900 26005KT P6SM SKC
     FM211500 23004KT P6SM SCT250=

USA.gov is the U.S. government's official web portal to all federal, state and local government web resources and services.